Ogema, Canada
Current Conditions -  °F | °C
As of 6:00 PM on Friday 21 Nov 2014 (Local Time) from CYMJ Reporting Station
Broken Clouds Broken Clouds  
Wind Chill: 32°   Ceiling: 11000
Heat Index: 39°   Visibility: 15mi
Dew Point: 32°   Wind: 10mph
Humidity: 75%   Direction: 250°WSW
Pressure: 29.58"   Gusts: NA
Location:  49.57°N, 104.92°W
Report Text: CYMJ 220000Z 25009KT 15SM FEW020 BKN110 04/00 A2958 RMK SC1AC6SLP038
Loading
Personal Weather Stations






























Interactive Weather Map New forecast layout! Learn more

10-Day Weather Forecast

Advertisements
Track Severe Weather on mobile